sensor_id;sensor_type;location;lat;lon;timestamp;temperature;humidity
24402;DHT22;12539;48.808;11.292;2023-06-10T00:01:26;18.50;76.50
24402;DHT22;12539;48.808;11.292;2023-06-10T00:03:53;18.40;76.60
24402;DHT22;12539;48.808;11.292;2023-06-10T00:06:18;18.40;77.00
24402;DHT22;12539;48.808;11.292;2023-06-10T00:08:44;18.40;77.10
24402;DHT22;12539;48.808;11.292;2023-06-10T00:11:09;18.30;77.20
24402;DHT22;12539;48.808;11.292;2023-06-10T00:13:35;18.30;77.40
24402;DHT22;12539;48.808;11.292;2023-06-10T00:16:02;18.30;77.50
24402;DHT22;12539;48.808;11.292;2023-06-10T00:18:28;18.40;77.50
24402;DHT22;12539;48.808;11.292;2023-06-10T00:20:56;18.40;77.60
24402;DHT22;12539;48.808;11.292;2023-06-10T00:23:28;18.30;77.60
24402;DHT22;12539;48.808;11.292;2023-06-10T00:25:57;18.30;77.90
24402;DHT22;12539;48.808;11.292;2023-06-10T00:28:23;18.30;78.10
24402;DHT22;12539;48.808;11.292;2023-06-10T00:30:48;18.20;78.30
24402;DHT22;12539;48.808;11.292;2023-06-10T00:33:14;18.20;78.60
24402;DHT22;12539;48.808;11.292;2023-06-10T00:35:40;18.20;78.80
24402;DHT22;12539;48.808;11.292;2023-06-10T00:38:05;18.20;79.20
24402;DHT22;12539;48.808;11.292;2023-06-10T00:40:33;18.10;79.50
24402;DHT22;12539;48.808;11.292;2023-06-10T00:42:58;18.20;79.70
24402;DHT22;12539;48.808;11.292;2023-06-10T00:45:24;18.20;79.90
24402;DHT22;12539;48.808;11.292;2023-06-10T00:47:50;18.20;80.10
24402;DHT22;12539;48.808;11.292;2023-06-10T00:50:15;18.20;80.10
24402;DHT22;12539;48.808;11.292;2023-06-10T00:52:41;18.20;80.30
24402;DHT22;12539;48.808;11.292;2023-06-10T00:55:08;18.20;80.60
24402;DHT22;12539;48.808;11.292;2023-06-10T00:57:34;18.20;80.80
24402;DHT22;12539;48.808;11.292;2023-06-10T01:00:01;18.20;80.90
24402;DHT22;12539;48.808;11.292;2023-06-10T01:02:27;18.20;81.00
24402;DHT22;12539;48.808;11.292;2023-06-10T01:04:52;18.20;81.00
24402;DHT22;12539;48.808;11.292;2023-06-10T01:07:25;18.20;81.20
24402;DHT22;12539;48.808;11.292;2023-06-10T01:14:59;18.20;81.50
24402;DHT22;12539;48.808;11.292;2023-06-10T01:17:24;18.30;81.70
24402;DHT22;12539;48.808;11.292;2023-06-10T01:19:58;18.30;81.80
24402;DHT22;12539;48.808;11.292;2023-06-10T01:22:27;18.30;82.10
24402;DHT22;12539;48.808;11.292;2023-06-10T01:25:02;18.30;82.40
24402;DHT22;12539;48.808;11.292;2023-06-10T01:27:29;18.30;82.70
24402;DHT22;12539;48.808;11.292;2023-06-10T01:30:02;18.20;82.80
24402;DHT22;12539;48.808;11.292;2023-06-10T01:32:33;18.20;83.00
24402;DHT22;12539;48.808;11.292;2023-06-10T01:35:00;18.30;84.00
24402;DHT22;12539;48.808;11.292;2023-06-10T01:37:26;18.20;83.40
24402;DHT22;12539;48.808;11.292;2023-06-10T01:39:52;18.20;83.80
24402;DHT22;12539;48.808;11.292;2023-06-10T01:42:20;18.20;84.00
24402;DHT22;12539;48.808;11.292;2023-06-10T01:44:45;18.20;84.40
24402;DHT22;12539;48.808;11.292;2023-06-10T01:47:11;18.20;84.60
24402;DHT22;12539;48.808;11.292;2023-06-10T01:49:37;18.20;85.00
24402;DHT22;12539;48.808;11.292;2023-06-10T01:52:03;18.20;85.10
24402;DHT22;12539;48.808;11.292;2023-06-10T01:54:28;18.20;85.50
24402;DHT22;12539;48.808;11.292;2023-06-10T01:56:54;18.10;86.10
24402;DHT22;12539;48.808;11.292;2023-06-10T01:59:19;18.10;86.90
24402;DHT22;12539;48.808;11.292;2023-06-10T02:01:45;18.10;88.30
24402;DHT22;12539;48.808;11.292;2023-06-10T02:04:10;18.10;88.90
24402;DHT22;12539;48.808;11.292;2023-06-10T02:06:36;18.00;89.70
24402;DHT22;12539;48.808;11.292;2023-06-10T02:09:03;18.00;89.00
24402;DHT22;12539;48.808;11.292;2023-06-10T02:11:28;18.00;90.30
24402;DHT22;12539;48.808;11.292;2023-06-10T02:13:54;18.10;90.20
24402;DHT22;12539;48.808;11.292;2023-06-10T02:16:20;18.10;90.90
24402;DHT22;12539;48.808;11.292;2023-06-10T02:18:46;18.10;91.20
24402;DHT22;12539;48.808;11.292;2023-06-10T02:21:12;18.10;91.10
24402;DHT22;12539;48.808;11.292;2023-06-10T02:23:37;18.10;90.80
24402;DHT22;12539;48.808;11.292;2023-06-10T02:26:03;18.10;90.50
24402;DHT22;12539;48.808;11.292;2023-06-10T02:28:28;18.10;90.10
24402;DHT22;12539;48.808;11.292;2023-06-10T02:30:54;18.20;89.90
24402;DHT22;12539;48.808;11.292;2023-06-10T02:33:20;18.20;89.30
24402;DHT22;12539;48.808;11.292;2023-06-10T02:35:45;18.20;89.00
24402;DHT22;12539;48.808;11.292;2023-06-10T02:38:11;18.20;88.60
24402;DHT22;12539;48.808;11.292;2023-06-10T02:40:36;18.20;88.40
24402;DHT22;12539;48.808;11.292;2023-06-10T02:43:02;18.10;88.20
24402;DHT22;12539;48.808;11.292;2023-06-10T02:45:27;18.10;88.10
24402;DHT22;12539;48.808;11.292;2023-06-10T02:47:53;18.10;88.00
24402;DHT22;12539;48.808;11.292;2023-06-10T02:50:18;18.00;87.80
24402;DHT22;12539;48.808;11.292;2023-06-10T02:52:44;18.00;87.90
24402;DHT22;12539;48.808;11.292;2023-06-10T02:55:09;18.00;87.90
24402;DHT22;12539;48.808;11.292;2023-06-10T02:57:35;18.00;87.60
24402;DHT22;12539;48.808;11.292;2023-06-10T03:00:01;18.10;87.60
24402;DHT22;12539;48.808;11.292;2023-06-10T03:02:27;18.00;87.50
24402;DHT22;12539;48.808;11.292;2023-06-10T03:04:56;18.00;87.40
24402;DHT22;12539;48.808;11.292;2023-06-10T03:07:22;18.00;87.30
24402;DHT22;12539;48.808;11.292;2023-06-10T03:09:48;18.10;87.20
24402;DHT22;12539;48.808;11.292;2023-06-10T03:12:14;18.00;87.20
24402;DHT22;12539;48.808;11.292;2023-06-10T03:14:39;18.00;87.30
24402;DHT22;12539;48.808;11.292;2023-06-10T03:17:05;18.00;87.20
24402;DHT22;12539;48.808;11.292;2023-06-10T03:19:31;18.00;87.10
24402;DHT22;12539;48.808;11.292;2023-06-10T03:22:08;18.00;87.20
24402;DHT22;12539;48.808;11.292;2023-06-10T03:24:34;18.10;87.50
24402;DHT22;12539;48.808;11.292;2023-06-10T03:27:01;18.10;87.20
24402;DHT22;12539;48.808;11.292;2023-06-10T03:29:27;18.10;87.10
24402;DHT22;12539;48.808;11.292;2023-06-10T03:31:52;18.10;87.00
24402;DHT22;12539;48.808;11.292;2023-06-10T03:34:18;18.10;86.80
24402;DHT22;12539;48.808;11.292;2023-06-10T03:36:43;18.10;86.80
24402;DHT22;12539;48.808;11.292;2023-06-10T03:39:10;18.10;86.70
24402;DHT22;12539;48.808;11.292;2023-06-10T03:41:35;18.10;86.70
24402;DHT22;12539;48.808;11.292;2023-06-10T03:44:01;18.20;86.70
24402;DHT22;12539;48.808;11.292;2023-06-10T03:46:26;18.20;86.80
24402;DHT22;12539;48.808;11.292;2023-06-10T03:48:52;18.20;86.80
24402;DHT22;12539;48.808;11.292;2023-06-10T03:51:17;18.20;86.90
24402;DHT22;12539;48.808;11.292;2023-06-10T03:53:43;18.20;87.00
24402;DHT22;12539;48.808;11.292;2023-06-10T03:56:08;18.20;87.00
24402;DHT22;12539;48.808;11.292;2023-06-10T03:58:34;18.20;87.10
24402;DHT22;12539;48.808;11.292;2023-06-10T04:01:00;18.20;87.90
24402;DHT22;12539;48.808;11.292;2023-06-10T04:03:25;18.20;87.10
24402;DHT22;12539;48.808;11.292;2023-06-10T04:05:51;18.20;87.10
24402;DHT22;12539;48.808;11.292;2023-06-10T04:08:17;18.20;87.10
24402;DHT22;12539;48.808;11.292;2023-06-10T04:10:43;18.20;87.10
24402;DHT22;12539;48.808;11.292;2023-06-10T04:13:08;18.20;87.10
24402;DHT22;12539;48.808;11.292;2023-06-10T04:15:37;18.10;87.10
24402;DHT22;12539;48.808;11.292;2023-06-10T04:18:02;18.10;87.20
24402;DHT22;12539;48.808;11.292;2023-06-10T04:20:28;18.10;87.30
24402;DHT22;12539;48.808;11.292;2023-06-10T04:22:53;18.20;87.40
24402;DHT22;12539;48.808;11.292;2023-06-10T04:25:19;18.20;87.30
24402;DHT22;12539;48.808;11.292;2023-06-10T04:27:45;18.20;87.30
24402;DHT22;12539;48.808;11.292;2023-06-10T04:30:11;18.20;87.30
24402;DHT22;12539;48.808;11.292;2023-06-10T04:32:36;18.30;87.20
24402;DHT22;12539;48.808;11.292;2023-06-10T04:35:02;18.40;87.20
24402;DHT22;12539;48.808;11.292;2023-06-10T04:37:28;18.40;87.00
24402;DHT22;12539;48.808;11.292;2023-06-10T04:39:54;18.50;87.10
24402;DHT22;12539;48.808;11.292;2023-06-10T04:42:23;18.50;87.00
24402;DHT22;12539;48.808;11.292;2023-06-10T04:44:48;18.60;87.00
24402;DHT22;12539;48.808;11.292;2023-06-10T04:47:14;18.60;86.90
24402;DHT22;12539;48.808;11.292;2023-06-10T04:49:39;18.70;86.90
24402;DHT22;12539;48.808;11.292;2023-06-10T04:52:05;18.70;86.80
24402;DHT22;12539;48.808;11.292;2023-06-10T04:54:30;18.70;86.70
24402;DHT22;12539;48.808;11.292;2023-06-10T04:56:56;18.80;86.70
24402;DHT22;12539;48.808;11.292;2023-06-10T04:59:22;18.80;86.70
24402;DHT22;12539;48.808;11.292;2023-06-10T05:01:47;18.90;86.70
24402;DHT22;12539;48.808;11.292;2023-06-10T05:04:13;18.90;86.60
24402;DHT22;12539;48.808;11.292;2023-06-10T05:06:38;18.90;86.60
24402;DHT22;12539;48.808;11.292;2023-06-10T05:09:04;19.00;86.40
24402;DHT22;12539;48.808;11.292;2023-06-10T05:11:30;19.00;86.20
24402;DHT22;12539;48.808;11.292;2023-06-10T05:13:56;19.10;86.20
24402;DHT22;12539;48.808;11.292;2023-06-10T05:16:21;19.10;86.00
24402;DHT22;12539;48.808;11.292;2023-06-10T05:18:47;19.20;85.90
24402;DHT22;12539;48.808;11.292;2023-06-10T05:21:12;19.20;85.70
24402;DHT22;12539;48.808;11.292;2023-06-10T05:23:38;19.30;85.60
24402;DHT22;12539;48.808;11.292;2023-06-10T05:26:04;19.30;85.30
24402;DHT22;12539;48.808;11.292;2023-06-10T05:28:29;19.40;85.00
24402;DHT22;12539;48.808;11.292;2023-06-10T05:30:55;19.40;84.80
24402;DHT22;12539;48.808;11.292;2023-06-10T05:33:20;19.50;84.60
24402;DHT22;12539;48.808;11.292;2023-06-10T05:35:46;19.60;84.50
24402;DHT22;12539;48.808;11.292;2023-06-10T05:38:11;19.70;84.30
24402;DHT22;12539;48.808;11.292;2023-06-10T05:40:37;19.80;84.00
24402;DHT22;12539;48.808;11.292;2023-06-10T05:43:03;19.90;84.50
24402;DHT22;12539;48.808;11.292;2023-06-10T05:45:28;20.00;83.60
24402;DHT22;12539;48.808;11.292;2023-06-10T05:47:54;20.20;83.60
24402;DHT22;12539;48.808;11.292;2023-06-10T05:50:19;20.60;83.70
24402;DHT22;12539;48.808;11.292;2023-06-10T05:52:45;21.30;83.30
24402;DHT22;12539;48.808;11.292;2023-06-10T05:55:10;22.30;82.70
24402;DHT22;12539;48.808;11.292;2023-06-10T05:57:36;24.10;78.70
24402;DHT22;12539;48.808;11.292;2023-06-10T06:00:01;26.10;72.10
24402;DHT22;12539;48.808;11.292;2023-06-10T06:02:27;27.80;67.10
24402;DHT22;12539;48.808;11.292;2023-06-10T06:04:53;29.30;62.50
24402;DHT22;12539;48.808;11.292;2023-06-10T06:07:18;30.70;59.20
24402;DHT22;12539;48.808;11.292;2023-06-10T06:09:46;31.90;56.60
24402;DHT22;12539;48.808;11.292;2023-06-10T06:12:12;32.80;53.70
24402;DHT22;12539;48.808;11.292;2023-06-10T06:14:37;33.50;50.50
24402;DHT22;12539;48.808;11.292;2023-06-10T06:17:07;34.00;47.90
24402;DHT22;12539;48.808;11.292;2023-06-10T06:19:32;34.50;45.70
24402;DHT22;12539;48.808;11.292;2023-06-10T06:21:58;35.00;45.70
24402;DHT22;12539;48.808;11.292;2023-06-10T06:24:23;35.60;44.50
24402;DHT22;12539;48.808;11.292;2023-06-10T06:26:49;36.10;43.30
24402;DHT22;12539;48.808;11.292;2023-06-10T06:29:14;36.60;42.60
24402;DHT22;12539;48.808;11.292;2023-06-10T06:31:40;37.20;40.70
24402;DHT22;12539;48.808;11.292;2023-06-10T06:34:06;37.40;38.30
24402;DHT22;12539;48.808;11.292;2023-06-10T06:36:31;37.40;37.60
24402;DHT22;12539;48.808;11.292;2023-06-10T06:38:57;37.50;37.10
24402;DHT22;12539;48.808;11.292;2023-06-10T06:41:25;37.60;36.50
24402;DHT22;12539;48.808;11.292;2023-06-10T06:43:51;37.90;36.30
24402;DHT22;12539;48.808;11.292;2023-06-10T06:46:16;38.20;35.80
24402;DHT22;12539;48.808;11.292;2023-06-10T06:48:42;38.70;35.70
24402;DHT22;12539;48.808;11.292;2023-06-10T06:51:07;39.10;35.10
24402;DHT22;12539;48.808;11.292;2023-06-10T06:53:33;39.50;33.50
24402;DHT22;12539;48.808;11.292;2023-06-10T06:55:58;39.80;33.60
24402;DHT22;12539;48.808;11.292;2023-06-10T06:58:24;40.00;32.80
24402;DHT22;12539;48.808;11.292;2023-06-10T07:00:50;40.10;31.60
24402;DHT22;12539;48.808;11.292;2023-06-10T07:03:15;40.10;31.00
24402;DHT22;12539;48.808;11.292;2023-06-10T07:05:41;40.10;31.40
24402;DHT22;12539;48.808;11.292;2023-06-10T07:08:06;40.00;30.70
24402;DHT22;12539;48.808;11.292;2023-06-10T07:10:32;39.70;30.50
24402;DHT22;12539;48.808;11.292;2023-06-10T07:12:58;39.10;30.40
24402;DHT22;12539;48.808;11.292;2023-06-10T07:15:23;38.40;31.20
24402;DHT22;12539;48.808;11.292;2023-06-10T07:17:49;36.70;32.70
24402;DHT22;12539;48.808;11.292;2023-06-10T07:20:14;34.70;35.40
24402;DHT22;12539;48.808;11.292;2023-06-10T07:22:41;33.00;38.00
24402;DHT22;12539;48.808;11.292;2023-06-10T07:25:06;31.60;40.60
24402;DHT22;12539;48.808;11.292;2023-06-10T07:27:32;30.50;42.90
24402;DHT22;12539;48.808;11.292;2023-06-10T07:29:57;29.60;44.60
24402;DHT22;12539;48.808;11.292;2023-06-10T07:32:23;29.10;45.80
24402;DHT22;12539;48.808;11.292;2023-06-10T07:34:49;28.60;46.30
24402;DHT22;12539;48.808;11.292;2023-06-10T07:37:15;28.20;47.50
24402;DHT22;12539;48.808;11.292;2023-06-10T07:39:40;27.80;49.20
24402;DHT22;12539;48.808;11.292;2023-06-10T07:42:06;27.40;49.70
24402;DHT22;12539;48.808;11.292;2023-06-10T07:44:32;27.10;50.70
24402;DHT22;12539;48.808;11.292;2023-06-10T07:46:57;26.90;51.10
24402;DHT22;12539;48.808;11.292;2023-06-10T07:49:23;26.70;51.30
24402;DHT22;12539;48.808;11.292;2023-06-10T07:51:49;26.60;52.20
24402;DHT22;12539;48.808;11.292;2023-06-10T07:54:15;26.50;52.70
24402;DHT22;12539;48.808;11.292;2023-06-10T07:56:40;26.50;52.60
24402;DHT22;12539;48.808;11.292;2023-06-10T07:59:06;26.50;52.80
24402;DHT22;12539;48.808;11.292;2023-06-10T08:01:32;26.50;52.40
24402;DHT22;12539;48.808;11.292;2023-06-10T08:03:58;26.50;52.60
24402;DHT22;12539;48.808;11.292;2023-06-10T08:06:23;26.50;52.90
24402;DHT22;12539;48.808;11.292;2023-06-10T08:08:49;26.50;52.40
24402;DHT22;12539;48.808;11.292;2023-06-10T08:11:14;26.30;52.30
24402;DHT22;12539;48.808;11.292;2023-06-10T08:13:40;26.40;52.90
24402;DHT22;12539;48.808;11.292;2023-06-10T08:16:06;26.50;53.10
24402;DHT22;12539;48.808;11.292;2023-06-10T08:18:31;26.70;52.90
24402;DHT22;12539;48.808;11.292;2023-06-10T08:20:57;26.70;52.20
24402;DHT22;12539;48.808;11.292;2023-06-10T08:23:22;26.80;52.10
24402;DHT22;12539;48.808;11.292;2023-06-10T08:25:48;26.90;51.70
24402;DHT22;12539;48.808;11.292;2023-06-10T08:28:14;27.10;51.00
24402;DHT22;12539;48.808;11.292;2023-06-10T08:30:39;27.00;50.90
24402;DHT22;12539;48.808;11.292;2023-06-10T08:33:05;26.80;50.80
24402;DHT22;12539;48.808;11.292;2023-06-10T08:35:30;26.60;50.60
24402;DHT22;12539;48.808;11.292;2023-06-10T08:37:56;26.50;51.10
24402;DHT22;12539;48.808;11.292;2023-06-10T08:40:21;26.40;51.40
24402;DHT22;12539;48.808;11.292;2023-06-10T08:43:06;26.30;51.80
24402;DHT22;12539;48.808;11.292;2023-06-10T08:45:32;26.20;52.00
24402;DHT22;12539;48.808;11.292;2023-06-10T08:48:01;26.20;52.10
24402;DHT22;12539;48.808;11.292;2023-06-10T08:50:28;26.10;52.30
24402;DHT22;12539;48.808;11.292;2023-06-10T08:52:57;26.10;52.50
24402;DHT22;12539;48.808;11.292;2023-06-10T08:57:51;25.90;53.00
24402;DHT22;12539;48.808;11.292;2023-06-10T09:00:18;25.70;53.10
24402;DHT22;12539;48.808;11.292;2023-06-10T09:02:44;25.60;53.40
24402;DHT22;12539;48.808;11.292;2023-06-10T09:05:10;25.50;53.60
24402;DHT22;12539;48.808;11.292;2023-06-10T09:07:35;25.50;53.70
24402;DHT22;12539;48.808;11.292;2023-06-10T09:10:02;25.40;53.90
24402;DHT22;12539;48.808;11.292;2023-06-10T09:12:29;25.40;54.30
24402;DHT22;12539;48.808;11.292;2023-06-10T09:14:55;25.40;54.20
24402;DHT22;12539;48.808;11.292;2023-06-10T09:17:20;25.40;54.20
24402;DHT22;12539;48.808;11.292;2023-06-10T09:19:46;25.50;54.10
24402;DHT22;12539;48.808;11.292;2023-06-10T09:22:12;25.60;54.20
24402;DHT22;12539;48.808;11.292;2023-06-10T09:24:38;25.80;54.10
24402;DHT22;12539;48.808;11.292;2023-06-10T09:29:30;26.10;54.20
24402;DHT22;12539;48.808;11.292;2023-06-10T09:31:56;26.00;53.40
24402;DHT22;12539;48.808;11.292;2023-06-10T09:34:24;26.00;53.30
24402;DHT22;12539;48.808;11.292;2023-06-10T09:36:52;25.90;53.10
24402;DHT22;12539;48.808;11.292;2023-06-10T09:39:18;25.80;53.00
24402;DHT22;12539;48.808;11.292;2023-06-10T09:41:44;25.80;52.80
24402;DHT22;12539;48.808;11.292;2023-06-10T09:44:14;25.70;53.10
24402;DHT22;12539;48.808;11.292;2023-06-10T09:46:40;25.80;53.50
24402;DHT22;12539;48.808;11.292;2023-06-10T09:49:05;25.90;53.50
24402;DHT22;12539;48.808;11.292;2023-06-10T09:51:31;26.00;53.50
24402;DHT22;12539;48.808;11.292;2023-06-10T09:53:57;26.10;53.20
24402;DHT22;12539;48.808;11.292;2023-06-10T09:56:32;26.10;53.00
24402;DHT22;12539;48.808;11.292;2023-06-10T09:58:57;26.30;52.70
24402;DHT22;12539;48.808;11.292;2023-06-10T10:01:23;26.40;52.60
24402;DHT22;12539;48.808;11.292;2023-06-10T10:03:49;26.60;52.40
24402;DHT22;12539;48.808;11.292;2023-06-10T10:06:16;26.50;52.00
24402;DHT22;12539;48.808;11.292;2023-06-10T10:08:42;26.40;51.80
24402;DHT22;12539;48.808;11.292;2023-06-10T10:11:08;26.30;51.50
24402;DHT22;12539;48.808;11.292;2023-06-10T10:13:34;26.30;51.90
24402;DHT22;12539;48.808;11.292;2023-06-10T10:16:09;26.20;52.40
24402;DHT22;12539;48.808;11.292;2023-06-10T10:18:38;26.10;52.40
24402;DHT22;12539;48.808;11.292;2023-06-10T10:21:05;26.20;52.30
24402;DHT22;12539;48.808;11.292;2023-06-10T10:23:34;26.30;51.80
24402;DHT22;12539;48.808;11.292;2023-06-10T10:26:03;26.30;52.40
24402;DHT22;12539;48.808;11.292;2023-06-10T10:28:34;26.30;52.50
24402;DHT22;12539;48.808;11.292;2023-06-10T10:31:03;26.50;52.60
24402;DHT22;12539;48.808;11.292;2023-06-10T10:33:33;26.60;53.10
24402;DHT22;12539;48.808;11.292;2023-06-10T10:36:01;26.70;52.80
24402;DHT22;12539;48.808;11.292;2023-06-10T10:41:12;26.70;52.30
24402;DHT22;12539;48.808;11.292;2023-06-10T10:43:37;26.60;52.10
24402;DHT22;12539;48.808;11.292;2023-06-10T10:46:08;26.50;52.20
24402;DHT22;12539;48.808;11.292;2023-06-10T10:48:36;26.50;52.50
24402;DHT22;12539;48.808;11.292;2023-06-10T10:51:02;26.30;52.00
24402;DHT22;12539;48.808;11.292;2023-06-10T10:53:28;26.10;52.80
24402;DHT22;12539;48.808;11.292;2023-06-10T10:56:15;25.90;53.40
24402;DHT22;12539;48.808;11.292;2023-06-10T10:58:39;25.70;53.90
24402;DHT22;12539;48.808;11.292;2023-06-10T11:01:11;25.50;53.80
24402;DHT22;12539;48.808;11.292;2023-06-10T11:03:42;25.50;54.20
24402;DHT22;12539;48.808;11.292;2023-06-10T11:06:11;25.50;54.50
24402;DHT22;12539;48.808;11.292;2023-06-10T11:11:19;25.50;54.80
24402;DHT22;12539;48.808;11.292;2023-06-10T11:16:27;25.70;54.60
24402;DHT22;12539;48.808;11.292;2023-06-10T11:18:53;25.70;53.90
24402;DHT22;12539;48.808;11.292;2023-06-10T11:21:19;25.70;54.20
24402;DHT22;12539;48.808;11.292;2023-06-10T11:23:44;25.50;54.30
24402;DHT22;12539;48.808;11.292;2023-06-10T11:28:36;25.30;55.20
24402;DHT22;12539;48.808;11.292;2023-06-10T11:31:02;25.30;55.50
24402;DHT22;12539;48.808;11.292;2023-06-10T11:33:27;25.30;55.40
24402;DHT22;12539;48.808;11.292;2023-06-10T11:35:53;25.50;55.20
24402;DHT22;12539;48.808;11.292;2023-06-10T11:38:19;25.60;54.60
24402;DHT22;12539;48.808;11.292;2023-06-10T11:40:48;25.70;54.20
24402;DHT22;12539;48.808;11.292;2023-06-10T11:43:14;25.90;54.30
24402;DHT22;12539;48.808;11.292;2023-06-10T11:45:41;26.10;53.80
24402;DHT22;12539;48.808;11.292;2023-06-10T11:48:06;26.20;53.60
24402;DHT22;12539;48.808;11.292;2023-06-10T11:50:32;26.30;53.30
24402;DHT22;12539;48.808;11.292;2023-06-10T11:52:58;26.40;53.10
24402;DHT22;12539;48.808;11.292;2023-06-10T11:55:24;26.40;52.20
24402;DHT22;12539;48.808;11.292;2023-06-10T11:57:50;26.30;52.60
24402;DHT22;12539;48.808;11.292;2023-06-10T12:00:23;26.30;52.90
24402;DHT22;12539;48.808;11.292;2023-06-10T12:02:55;26.10;52.70
24402;DHT22;12539;48.808;11.292;2023-06-10T12:05:22;26.10;53.20
24402;DHT22;12539;48.808;11.292;2023-06-10T12:07:48;26.00;53.20
24402;DHT22;12539;48.808;11.292;2023-06-10T12:10:13;26.10;53.50
24402;DHT22;12539;48.808;11.292;2023-06-10T12:12:39;26.20;53.80
24402;DHT22;12539;48.808;11.292;2023-06-10T12:15:06;26.30;53.80
24402;DHT22;12539;48.808;11.292;2023-06-10T12:19:58;26.30;52.80
24402;DHT22;12539;48.808;11.292;2023-06-10T12:22:25;26.30;52.90
24402;DHT22;12539;48.808;11.292;2023-06-10T12:27:25;26.30;53.20
24402;DHT22;12539;48.808;11.292;2023-06-10T12:29:51;26.30;53.30
24402;DHT22;12539;48.808;11.292;2023-06-10T12:32:19;26.10;53.10
24402;DHT22;12539;48.808;11.292;2023-06-10T12:34:45;25.90;53.50
24402;DHT22;12539;48.808;11.292;2023-06-10T12:37:12;25.70;53.70
24402;DHT22;12539;48.808;11.292;2023-06-10T12:39:41;25.50;54.70
24402;DHT22;12539;48.808;11.292;2023-06-10T12:42:06;25.50;54.90
24402;DHT22;12539;48.808;11.292;2023-06-10T12:44:35;25.40;55.10
24402;DHT22;12539;48.808;11.292;2023-06-10T12:47:06;25.30;55.00
24402;DHT22;12539;48.808;11.292;2023-06-10T12:49:32;25.30;55.20
24402;DHT22;12539;48.808;11.292;2023-06-10T12:51:57;25.30;55.10
24402;DHT22;12539;48.808;11.292;2023-06-10T12:54:23;25.30;55.20
24402;DHT22;12539;48.808;11.292;2023-06-10T12:56:49;25.30;55.00
24402;DHT22;12539;48.808;11.292;2023-06-10T12:59:14;25.20;54.60
24402;DHT22;12539;48.808;11.292;2023-06-10T13:01:40;25.10;54.70
24402;DHT22;12539;48.808;11.292;2023-06-10T13:04:06;25.10;54.50
24402;DHT22;12539;48.808;11.292;2023-06-10T13:06:32;25.10;55.60
24402;DHT22;12539;48.808;11.292;2023-06-10T13:09:02;25.20;54.20
24402;DHT22;12539;48.808;11.292;2023-06-10T13:11:28;25.20;54.60
24402;DHT22;12539;48.808;11.292;2023-06-10T13:13:53;25.30;54.30
24402;DHT22;12539;48.808;11.292;2023-06-10T13:16:19;25.30;54.00
24402;DHT22;12539;48.808;11.292;2023-06-10T13:18:44;25.20;54.10
24402;DHT22;12539;48.808;11.292;2023-06-10T13:21:10;25.20;54.40
24402;DHT22;12539;48.808;11.292;2023-06-10T13:23:35;25.20;54.00
24402;DHT22;12539;48.808;11.292;2023-06-10T13:26:01;25.20;54.20
24402;DHT22;12539;48.808;11.292;2023-06-10T13:28:28;25.20;54.50
24402;DHT22;12539;48.808;11.292;2023-06-10T13:30:54;25.40;54.40
24402;DHT22;12539;48.808;11.292;2023-06-10T13:33:19;25.50;54.20
24402;DHT22;12539;48.808;11.292;2023-06-10T13:35:45;25.70;54.10
24402;DHT22;12539;48.808;11.292;2023-06-10T13:38:10;25.90;54.00
24402;DHT22;12539;48.808;11.292;2023-06-10T13:40:36;26.20;53.60
24402;DHT22;12539;48.808;11.292;2023-06-10T13:43:01;26.40;52.90
24402;DHT22;12539;48.808;11.292;2023-06-10T13:45:27;26.60;52.10
24402;DHT22;12539;48.808;11.292;2023-06-10T13:47:53;26.70;51.30
24402;DHT22;12539;48.808;11.292;2023-06-10T13:50:18;26.80;51.40
24402;DHT22;12539;48.808;11.292;2023-06-10T13:52:44;26.90;51.90
24402;DHT22;12539;48.808;11.292;2023-06-10T13:55:10;26.90;52.10
24402;DHT22;12539;48.808;11.292;2023-06-10T13:57:35;26.80;51.60
24402;DHT22;12539;48.808;11.292;2023-06-10T14:00:01;26.80;51.90
24402;DHT22;12539;48.808;11.292;2023-06-10T14:02:26;26.70;51.80
24402;DHT22;12539;48.808;11.292;2023-06-10T14:04:52;26.70;52.30
24402;DHT22;12539;48.808;11.292;2023-06-10T14:07:18;26.70;52.60
24402;DHT22;12539;48.808;11.292;2023-06-10T14:09:43;26.70;52.40
24402;DHT22;12539;48.808;11.292;2023-06-10T14:12:09;26.70;52.40
24402;DHT22;12539;48.808;11.292;2023-06-10T14:14:35;26.70;52.70
24402;DHT22;12539;48.808;11.292;2023-06-10T14:17:01;26.70;52.30
24402;DHT22;12539;48.808;11.292;2023-06-10T14:19:29;26.80;51.80
24402;DHT22;12539;48.808;11.292;2023-06-10T14:21:55;26.80;51.30
24402;DHT22;12539;48.808;11.292;2023-06-10T14:24:21;26.80;51.80
24402;DHT22;12539;48.808;11.292;2023-06-10T14:26:46;26.70;51.60
24402;DHT22;12539;48.808;11.292;2023-06-10T14:29:12;26.70;51.70
24402;DHT22;12539;48.808;11.292;2023-06-10T14:31:39;26.60;52.00
24402;DHT22;12539;48.808;11.292;2023-06-10T14:34:05;26.60;51.90
24402;DHT22;12539;48.808;11.292;2023-06-10T14:36:33;26.50;52.30
24402;DHT22;12539;48.808;11.292;2023-06-10T14:38:58;26.40;52.50
24402;DHT22;12539;48.808;11.292;2023-06-10T14:41:24;26.20;52.70
24402;DHT22;12539;48.808;11.292;2023-06-10T14:43:50;26.10;53.10
24402;DHT22;12539;48.808;11.292;2023-06-10T14:49:01;25.90;53.70
24402;DHT22;12539;48.808;11.292;2023-06-10T14:51:27;25.90;54.00
24402;DHT22;12539;48.808;11.292;2023-06-10T14:53:53;25.80;54.20
24402;DHT22;12539;48.808;11.292;2023-06-10T14:56:18;25.80;54.30
24402;DHT22;12539;48.808;11.292;2023-06-10T14:58:44;25.90;54.30
24402;DHT22;12539;48.808;11.292;2023-06-10T15:01:10;25.90;53.70
24402;DHT22;12539;48.808;11.292;2023-06-10T15:03:35;25.90;53.00
24402;DHT22;12539;48.808;11.292;2023-06-10T15:06:01;26.00;53.20
24402;DHT22;12539;48.808;11.292;2023-06-10T15:08:26;25.90;53.30
24402;DHT22;12539;48.808;11.292;2023-06-10T15:10:53;25.90;52.80
24402;DHT22;12539;48.808;11.292;2023-06-10T15:13:19;25.90;53.40
24402;DHT22;12539;48.808;11.292;2023-06-10T15:15:45;25.90;53.00
24402;DHT22;12539;48.808;11.292;2023-06-10T15:18:10;25.80;52.50
24402;DHT22;12539;48.808;11.292;2023-06-10T15:20:36;25.90;52.50
24402;DHT22;12539;48.808;11.292;2023-06-10T15:23:01;25.90;52.80
24402;DHT22;12539;48.808;11.292;2023-06-10T15:25:27;25.90;52.50
24402;DHT22;12539;48.808;11.292;2023-06-10T15:27:52;25.90;52.20
24402;DHT22;12539;48.808;11.292;2023-06-10T15:30:18;25.90;52.30
24402;DHT22;12539;48.808;11.292;2023-06-10T15:32:44;25.90;52.50
24402;DHT22;12539;48.808;11.292;2023-06-10T15:35:09;26.00;52.50
24402;DHT22;12539;48.808;11.292;2023-06-10T15:37:35;26.20;52.40